sensor_id;sensor_type;location;lat;lon;timestamp;P1;durP1;ratioP1;P2;durP2;ratioP2
25946;SDS011;13745;51.470;9.894;2024-02-21T00:00:14;13.55;;;3.55;;
25946;SDS011;13745;51.470;9.894;2024-02-21T00:03:00;11.75;;;4.10;;
25946;SDS011;13745;51.470;9.894;2024-02-21T00:05:48;9.40;;;3.90;;
25946;SDS011;13745;51.470;9.894;2024-02-21T00:08:33;19.85;;;4.07;;
25946;SDS011;13745;51.470;9.894;2024-02-21T00:11:18;13.30;;;4.13;;
25946;SDS011;13745;51.470;9.894;2024-02-21T00:14:03;15.57;;;3.95;;
25946;SDS011;13745;51.470;9.894;2024-02-21T00:16:49;18.23;;;4.57;;
25946;SDS011;13745;51.470;9.894;2024-02-21T00:19:35;15.57;;;4.45;;
25946;SDS011;13745;51.470;9.894;2024-02-21T00:22:20;17.35;;;4.43;;
25946;SDS011;13745;51.470;9.894;2024-02-21T00:25:05;16.13;;;4.10;;
25946;SDS011;13745;51.470;9.894;2024-02-21T00:27:50;11.13;;;3.95;;
25946;SDS011;13745;51.470;9.894;2024-02-21T00:30:35;14.40;;;4.35;;
25946;SDS011;13745;51.470;9.894;2024-02-21T00:33:23;11.35;;;4.25;;
25946;SDS011;13745;51.470;9.894;2024-02-21T00:36:08;14.77;;;3.85;;
25946;SDS011;13745;51.470;9.894;2024-02-21T00:38:53;13.27;;;3.20;;
25946;SDS011;13745;51.470;9.894;2024-02-21T00:41:38;11.45;;;3.53;;
25946;SDS011;13745;51.470;9.894;2024-02-21T00:44:23;19.63;;;4.75;;
25946;SDS011;13745;51.470;9.894;2024-02-21T00:47:09;8.07;;;3.28;;
25946;SDS011;13745;51.470;9.894;2024-02-21T00:49:56;19.35;;;4.55;;
25946;SDS011;13745;51.470;9.894;2024-02-21T00:52:41;10.70;;;3.50;;
25946;SDS011;13745;51.470;9.894;2024-02-21T00:55:26;18.98;;;3.85;;
25946;SDS011;13745;51.470;9.894;2024-02-21T00:58:11;16.00;;;3.72;;
25946;SDS011;13745;51.470;9.894;2024-02-21T01:00:56;15.63;;;3.58;;
25946;SDS011;13745;51.470;9.894;2024-02-21T01:03:41;13.15;;;3.45;;
25946;SDS011;13745;51.470;9.894;2024-02-21T01:06:27;15.63;;;3.97;;
25946;SDS011;13745;51.470;9.894;2024-02-21T01:09:13;14.80;;;3.72;;
25946;SDS011;13745;51.470;9.894;2024-02-21T01:11:58;9.50;;;3.70;;
25946;SDS011;13745;51.470;9.894;2024-02-21T01:14:43;11.23;;;4.80;;
25946;SDS011;13745;51.470;9.894;2024-02-21T01:17:29;16.17;;;4.57;;
25946;SDS011;13745;51.470;9.894;2024-02-21T01:20:15;13.43;;;3.63;;
25946;SDS011;13745;51.470;9.894;2024-02-21T01:23:01;13.00;;;3.38;;
25946;SDS011;13745;51.470;9.894;2024-02-21T01:25:47;11.55;;;3.65;;
25946;SDS011;13745;51.470;9.894;2024-02-21T01:28:32;15.48;;;3.85;;
25946;SDS011;13745;51.470;9.894;2024-02-21T01:31:17;15.35;;;3.95;;
25946;SDS011;13745;51.470;9.894;2024-02-21T01:34:02;15.70;;;4.20;;
25946;SDS011;13745;51.470;9.894;2024-02-21T01:36:47;12.52;;;3.67;;
25946;SDS011;13745;51.470;9.894;2024-02-21T01:39:34;19.23;;;3.97;;
25946;SDS011;13745;51.470;9.894;2024-02-21T01:42:19;14.90;;;4.20;;
25946;SDS011;13745;51.470;9.894;2024-02-21T01:45:04;15.00;;;3.85;;
25946;SDS011;13745;51.470;9.894;2024-02-21T01:47:49;11.40;;;4.32;;
25946;SDS011;13745;51.470;9.894;2024-02-21T01:50:35;17.75;;;3.83;;
25946;SDS011;13745;51.470;9.894;2024-02-21T01:53:20;9.52;;;3.83;;
25946;SDS011;13745;51.470;9.894;2024-02-21T01:56:09;14.05;;;4.22;;
25946;SDS011;13745;51.470;9.894;2024-02-21T01:58:54;18.02;;;4.05;;
25946;SDS011;13745;51.470;9.894;2024-02-21T02:01:40;14.98;;;4.25;;
25946;SDS011;13745;51.470;9.894;2024-02-21T02:04:26;18.23;;;4.60;;
25946;SDS011;13745;51.470;9.894;2024-02-21T02:07:11;18.10;;;4.97;;
25946;SDS011;13745;51.470;9.894;2024-02-21T02:09:56;10.80;;;3.88;;
25946;SDS011;13745;51.470;9.894;2024-02-21T02:12:42;16.65;;;4.70;;
25946;SDS011;13745;51.470;9.894;2024-02-21T02:15:37;13.23;;;3.95;;
25946;SDS011;13745;51.470;9.894;2024-02-21T02:18:22;11.80;;;4.22;;
25946;SDS011;13745;51.470;9.894;2024-02-21T02:21:08;13.60;;;4.68;;
25946;SDS011;13745;51.470;9.894;2024-02-21T02:24:09;20.00;;;5.28;;
25946;SDS011;13745;51.470;9.894;2024-02-21T02:26:54;15.68;;;5.32;;
25946;SDS011;13745;51.470;9.894;2024-02-21T02:29:39;18.48;;;5.03;;
25946;SDS011;13745;51.470;9.894;2024-02-21T02:32:25;15.57;;;4.72;;
25946;SDS011;13745;51.470;9.894;2024-02-21T02:35:10;14.90;;;5.18;;
25946;SDS011;13745;51.470;9.894;2024-02-21T02:37:55;22.60;;;4.75;;
25946;SDS011;13745;51.470;9.894;2024-02-21T02:40:41;16.08;;;4.45;;
25946;SDS011;13745;51.470;9.894;2024-02-21T02:43:26;12.55;;;5.15;;
25946;SDS011;13745;51.470;9.894;2024-02-21T02:46:11;12.18;;;5.57;;
25946;SDS011;13745;51.470;9.894;2024-02-21T02:48:56;18.55;;;5.20;;
25946;SDS011;13745;51.470;9.894;2024-02-21T02:51:41;16.27;;;5.55;;
25946;SDS011;13745;51.470;9.894;2024-02-21T02:54:27;16.13;;;5.38;;
25946;SDS011;13745;51.470;9.894;2024-02-21T02:57:13;13.68;;;5.35;;
25946;SDS011;13745;51.470;9.894;2024-02-21T02:59:58;18.30;;;5.00;;
25946;SDS011;13745;51.470;9.894;2024-02-21T03:02:44;19.27;;;6.00;;
25946;SDS011;13745;51.470;9.894;2024-02-21T03:05:31;17.17;;;6.10;;
25946;SDS011;13745;51.470;9.894;2024-02-21T03:08:16;16.95;;;5.57;;
25946;SDS011;13745;51.470;9.894;2024-02-21T03:11:01;15.55;;;5.93;;
25946;SDS011;13745;51.470;9.894;2024-02-21T03:13:48;21.08;;;6.13;;
25946;SDS011;13745;51.470;9.894;2024-02-21T03:16:34;20.70;;;6.68;;
25946;SDS011;13745;51.470;9.894;2024-02-21T03:19:19;17.38;;;5.85;;
25946;SDS011;13745;51.470;9.894;2024-02-21T03:22:04;17.50;;;5.53;;
25946;SDS011;13745;51.470;9.894;2024-02-21T03:24:49;21.10;;;6.22;;
25946;SDS011;13745;51.470;9.894;2024-02-21T03:27:34;19.75;;;5.68;;
25946;SDS011;13745;51.470;9.894;2024-02-21T03:30:20;12.93;;;4.93;;
25946;SDS011;13745;51.470;9.894;2024-02-21T03:33:05;16.38;;;6.10;;
25946;SDS011;13745;51.470;9.894;2024-02-21T03:35:50;16.17;;;5.45;;
25946;SDS011;13745;51.470;9.894;2024-02-21T03:38:35;13.02;;;5.32;;
25946;SDS011;13745;51.470;9.894;2024-02-21T03:41:20;19.33;;;5.88;;
25946;SDS011;13745;51.470;9.894;2024-02-21T03:44:05;19.98;;;6.20;;
25946;SDS011;13745;51.470;9.894;2024-02-21T03:46:51;16.00;;;5.68;;
25946;SDS011;13745;51.470;9.894;2024-02-21T03:49:37;16.50;;;6.07;;
25946;SDS011;13745;51.470;9.894;2024-02-21T03:52:22;16.35;;;5.85;;
25946;SDS011;13745;51.470;9.894;2024-02-21T03:55:07;12.98;;;5.97;;
25946;SDS011;13745;51.470;9.894;2024-02-21T03:57:53;21.25;;;5.82;;
25946;SDS011;13745;51.470;9.894;2024-02-21T04:00:38;15.85;;;6.00;;
25946;SDS011;13745;51.470;9.894;2024-02-21T04:03:24;19.70;;;5.93;;
25946;SDS011;13745;51.470;9.894;2024-02-21T04:06:10;21.00;;;7.63;;
25946;SDS011;13745;51.470;9.894;2024-02-21T04:08:54;17.27;;;6.07;;
25946;SDS011;13745;51.470;9.894;2024-02-21T04:11:40;13.93;;;5.13;;
25946;SDS011;13745;51.470;9.894;2024-02-21T04:14:25;20.00;;;6.07;;
25946;SDS011;13745;51.470;9.894;2024-02-21T04:17:10;17.27;;;5.70;;
25946;SDS011;13745;51.470;9.894;2024-02-21T04:20:01;16.83;;;6.53;;
25946;SDS011;13745;51.470;9.894;2024-02-21T04:22:49;15.88;;;5.85;;
25946;SDS011;13745;51.470;9.894;2024-02-21T04:25:34;18.35;;;5.90;;
25946;SDS011;13745;51.470;9.894;2024-02-21T04:28:19;16.83;;;5.95;;
25946;SDS011;13745;51.470;9.894;2024-02-21T04:31:04;18.52;;;6.53;;
25946;SDS011;13745;51.470;9.894;2024-02-21T04:33:49;24.63;;;6.43;;
25946;SDS011;13745;51.470;9.894;2024-02-21T04:36:35;15.07;;;6.07;;
25946;SDS011;13745;51.470;9.894;2024-02-21T04:39:20;21.33;;;6.28;;
25946;SDS011;13745;51.470;9.894;2024-02-21T04:42:05;14.18;;;5.65;;
25946;SDS011;13745;51.470;9.894;2024-02-21T04:44:50;13.63;;;5.72;;
25946;SDS011;13745;51.470;9.894;2024-02-21T04:47:35;12.50;;;6.07;;
25946;SDS011;13745;51.470;9.894;2024-02-21T04:50:20;16.38;;;6.20;;
25946;SDS011;13745;51.470;9.894;2024-02-21T04:53:07;12.05;;;5.93;;
25946;SDS011;13745;51.470;9.894;2024-02-21T04:55:52;15.32;;;5.22;;
25946;SDS011;13745;51.470;9.894;2024-02-21T04:58:37;18.25;;;6.22;;
25946;SDS011;13745;51.470;9.894;2024-02-21T05:01:23;13.40;;;5.65;;
25946;SDS011;13745;51.470;9.894;2024-02-21T05:04:08;14.65;;;6.15;;
25946;SDS011;13745;51.470;9.894;2024-02-21T05:06:53;14.38;;;5.88;;
25946;SDS011;13745;51.470;9.894;2024-02-21T05:09:41;19.02;;;6.25;;
25946;SDS011;13745;51.470;9.894;2024-02-21T05:12:26;15.82;;;6.47;;
25946;SDS011;13745;51.470;9.894;2024-02-21T05:15:13;15.82;;;5.97;;
25946;SDS011;13745;51.470;9.894;2024-02-21T05:17:59;17.83;;;6.78;;
25946;SDS011;13745;51.470;9.894;2024-02-21T05:20:44;20.42;;;6.18;;
25946;SDS011;13745;51.470;9.894;2024-02-21T05:23:29;13.20;;;5.88;;
25946;SDS011;13745;51.470;9.894;2024-02-21T05:26:20;17.50;;;5.95;;
25946;SDS011;13745;51.470;9.894;2024-02-21T05:29:06;16.83;;;5.83;;
25946;SDS011;13745;51.470;9.894;2024-02-21T05:31:55;14.15;;;6.10;;
25946;SDS011;13745;51.470;9.894;2024-02-21T05:34:42;18.95;;;5.93;;
25946;SDS011;13745;51.470;9.894;2024-02-21T05:37:27;14.50;;;6.30;;
25946;SDS011;13745;51.470;9.894;2024-02-21T05:40:12;17.25;;;7.43;;
25946;SDS011;13745;51.470;9.894;2024-02-21T05:42:59;19.67;;;6.85;;
25946;SDS011;13745;51.470;9.894;2024-02-21T05:45:44;17.17;;;7.72;;
25946;SDS011;13745;51.470;9.894;2024-02-21T05:48:29;13.82;;;6.47;;
25946;SDS011;13745;51.470;9.894;2024-02-21T05:51:14;19.25;;;7.75;;
25946;SDS011;13745;51.470;9.894;2024-02-21T05:53:59;19.63;;;6.50;;
25946;SDS011;13745;51.470;9.894;2024-02-21T05:56:44;14.80;;;6.72;;
25946;SDS011;13745;51.470;9.894;2024-02-21T05:59:32;14.60;;;6.35;;
25946;SDS011;13745;51.470;9.894;2024-02-21T06:02:18;15.07;;;5.90;;
25946;SDS011;13745;51.470;9.894;2024-02-21T06:05:04;12.75;;;6.55;;
25946;SDS011;13745;51.470;9.894;2024-02-21T06:07:51;21.38;;;6.20;;
25946;SDS011;13745;51.470;9.894;2024-02-21T06:10:35;13.98;;;6.63;;
25946;SDS011;13745;51.470;9.894;2024-02-21T06:13:21;19.40;;;7.00;;
25946;SDS011;13745;51.470;9.894;2024-02-21T06:16:07;17.48;;;7.30;;
25946;SDS011;13745;51.470;9.894;2024-02-21T06:18:53;17.65;;;7.07;;
25946;SDS011;13745;51.470;9.894;2024-02-21T06:21:38;16.27;;;6.43;;
25946;SDS011;13745;51.470;9.894;2024-02-21T06:24:23;15.02;;;5.95;;
25946;SDS011;13745;51.470;9.894;2024-02-21T06:27:08;14.85;;;5.93;;
25946;SDS011;13745;51.470;9.894;2024-02-21T06:29:54;16.77;;;6.38;;
25946;SDS011;13745;51.470;9.894;2024-02-21T06:32:40;14.38;;;5.53;;
25946;SDS011;13745;51.470;9.894;2024-02-21T06:35:26;16.10;;;5.93;;
25946;SDS011;13745;51.470;9.894;2024-02-21T06:38:11;16.10;;;5.97;;
25946;SDS011;13745;51.470;9.894;2024-02-21T06:40:56;15.23;;;6.43;;
25946;SDS011;13745;51.470;9.894;2024-02-21T06:43:42;14.90;;;7.13;;
25946;SDS011;13745;51.470;9.894;2024-02-21T06:46:27;19.75;;;6.65;;
25946;SDS011;13745;51.470;9.894;2024-02-21T06:49:14;15.73;;;6.25;;
25946;SDS011;13745;51.470;9.894;2024-02-21T06:52:00;17.92;;;6.55;;
25946;SDS011;13745;51.470;9.894;2024-02-21T06:54:45;16.48;;;6.90;;
25946;SDS011;13745;51.470;9.894;2024-02-21T06:57:30;17.88;;;6.85;;
25946;SDS011;13745;51.470;9.894;2024-02-21T07:00:16;22.58;;;6.75;;
25946;SDS011;13745;51.470;9.894;2024-02-21T07:03:02;19.13;;;6.65;;
25946;SDS011;13745;51.470;9.894;2024-02-21T07:05:49;14.73;;;6.15;;
25946;SDS011;13745;51.470;9.894;2024-02-21T07:08:34;12.57;;;6.10;;
25946;SDS011;13745;51.470;9.894;2024-02-21T07:11:19;17.48;;;6.20;;
25946;SDS011;13745;51.470;9.894;2024-02-21T07:14:04;15.57;;;6.78;;
25946;SDS011;13745;51.470;9.894;2024-02-21T07:16:48;16.90;;;6.05;;
25946;SDS011;13745;51.470;9.894;2024-02-21T07:19:33;16.33;;;6.25;;
25946;SDS011;13745;51.470;9.894;2024-02-21T07:22:20;15.43;;;6.15;;
25946;SDS011;13745;51.470;9.894;2024-02-21T07:25:06;16.30;;;6.20;;
25946;SDS011;13745;51.470;9.894;2024-02-21T07:27:51;15.50;;;6.68;;
25946;SDS011;13745;51.470;9.894;2024-02-21T07:30:36;15.45;;;6.30;;
25946;SDS011;13745;51.470;9.894;2024-02-21T07:33:21;16.65;;;5.95;;
25946;SDS011;13745;51.470;9.894;2024-02-21T07:36:06;11.27;;;5.20;;
25946;SDS011;13745;51.470;9.894;2024-02-21T07:38:53;15.82;;;6.80;;
25946;SDS011;13745;51.470;9.894;2024-02-21T07:41:38;16.58;;;6.15;;
25946;SDS011;13745;51.470;9.894;2024-02-21T07:44:24;16.98;;;6.32;;
25946;SDS011;13745;51.470;9.894;2024-02-21T07:47:09;15.02;;;6.00;;
25946;SDS011;13745;51.470;9.894;2024-02-21T07:49:54;14.98;;;6.43;;
25946;SDS011;13745;51.470;9.894;2024-02-21T07:52:39;17.75;;;6.03;;
25946;SDS011;13745;51.470;9.894;2024-02-21T07:55:25;14.63;;;5.72;;
25946;SDS011;13745;51.470;9.894;2024-02-21T07:58:10;11.20;;;5.90;;
25946;SDS011;13745;51.470;9.894;2024-02-21T08:00:55;11.93;;;6.35;;
25946;SDS011;13745;51.470;9.894;2024-02-21T08:03:40;15.02;;;6.38;;
25946;SDS011;13745;51.470;9.894;2024-02-21T08:06:25;12.60;;;5.57;;
25946;SDS011;13745;51.470;9.894;2024-02-21T08:09:10;12.55;;;5.68;;
25946;SDS011;13745;51.470;9.894;2024-02-21T08:11:56;12.02;;;5.43;;
25946;SDS011;13745;51.470;9.894;2024-02-21T08:14:42;11.45;;;4.78;;
25946;SDS011;13745;51.470;9.894;2024-02-21T08:17:27;8.32;;;4.57;;
25946;SDS011;13745;51.470;9.894;2024-02-21T08:20:12;13.40;;;4.80;;
25946;SDS011;13745;51.470;9.894;2024-02-21T08:22:57;11.25;;;4.65;;
25946;SDS011;13745;51.470;9.894;2024-02-21T08:25:42;17.08;;;5.78;;
25946;SDS011;13745;51.470;9.894;2024-02-21T08:28:28;20.15;;;5.10;;
25946;SDS011;13745;51.470;9.894;2024-02-21T08:31:18;11.32;;;4.50;;
25946;SDS011;13745;51.470;9.894;2024-02-21T08:34:03;12.75;;;4.47;;
25946;SDS011;13745;51.470;9.894;2024-02-21T08:36:49;13.93;;;4.43;;
25946;SDS011;13745;51.470;9.894;2024-02-21T08:39:34;11.52;;;5.53;;
25946;SDS011;13745;51.470;9.894;2024-02-21T08:42:20;12.85;;;5.07;;
25946;SDS011;13745;51.470;9.894;2024-02-21T08:45:07;9.50;;;4.32;;
25946;SDS011;13745;51.470;9.894;2024-02-21T08:47:53;11.77;;;4.15;;
25946;SDS011;13745;51.470;9.894;2024-02-21T08:50:38;11.65;;;5.22;;
25946;SDS011;13745;51.470;9.894;2024-02-21T08:53:23;10.25;;;4.15;;
25946;SDS011;13745;51.470;9.894;2024-02-21T08:56:08;10.75;;;5.20;;
25946;SDS011;13745;51.470;9.894;2024-02-21T08:58:53;10.60;;;4.22;;
25946;SDS011;13745;51.470;9.894;2024-02-21T09:01:39;7.20;;;3.55;;
25946;SDS011;13745;51.470;9.894;2024-02-21T09:04:24;8.48;;;4.35;;
25946;SDS011;13745;51.470;9.894;2024-02-21T09:07:09;9.43;;;4.35;;
25946;SDS011;13745;51.470;9.894;2024-02-21T09:09:55;9.20;;;3.78;;
25946;SDS011;13745;51.470;9.894;2024-02-21T09:12:40;9.15;;;3.92;;
25946;SDS011;13745;51.470;9.894;2024-02-21T09:15:25;13.32;;;4.35;;
25946;SDS011;13745;51.470;9.894;2024-02-21T09:18:12;10.50;;;4.05;;
25946;SDS011;13745;51.470;9.894;2024-02-21T09:20:57;10.98;;;4.78;;
25946;SDS011;13745;51.470;9.894;2024-02-21T09:23:42;10.40;;;3.83;;
25946;SDS011;13745;51.470;9.894;2024-02-21T09:26:27;7.47;;;3.05;;
25946;SDS011;13745;51.470;9.894;2024-02-21T09:29:12;7.68;;;3.58;;
25946;SDS011;13745;51.470;9.894;2024-02-21T09:31:59;6.53;;;3.33;;
25946;SDS011;13745;51.470;9.894;2024-02-21T09:34:46;7.55;;;3.60;;
25946;SDS011;13745;51.470;9.894;2024-02-21T09:37:31;9.80;;;4.68;;
25946;SDS011;13745;51.470;9.894;2024-02-21T09:40:16;9.02;;;4.40;;
25946;SDS011;13745;51.470;9.894;2024-02-21T09:43:02;9.57;;;4.15;;
25946;SDS011;13745;51.470;9.894;2024-02-21T09:45:50;9.85;;;3.90;;
25946;SDS011;13745;51.470;9.894;2024-02-21T09:48:42;8.90;;;4.00;;
25946;SDS011;13745;51.470;9.894;2024-02-21T09:51:40;8.80;;;4.65;;
25946;SDS011;13745;51.470;9.894;2024-02-21T09:54:28;9.25;;;3.90;;
25946;SDS011;13745;51.470;9.894;2024-02-21T09:57:14;11.10;;;3.67;;
25946;SDS011;13745;51.470;9.894;2024-02-21T09:59:59;7.38;;;3.30;;
25946;SDS011;13745;51.470;9.894;2024-02-21T10:02:57;8.70;;;3.40;;
25946;SDS011;13745;51.470;9.894;2024-02-21T10:05:46;5.32;;;3.25;;
25946;SDS011;13745;51.470;9.894;2024-02-21T10:08:34;10.25;;;3.65;;
25946;SDS011;13745;51.470;9.894;2024-02-21T10:11:23;8.18;;;3.22;;
25946;SDS011;13745;51.470;9.894;2024-02-21T10:14:08;9.27;;;3.95;;
25946;SDS011;13745;51.470;9.894;2024-02-21T10:16:56;9.85;;;3.30;;
25946;SDS011;13745;51.470;9.894;2024-02-21T10:19:42;7.80;;;3.45;;
25946;SDS011;13745;51.470;9.894;2024-02-21T10:22:27;7.97;;;3.30;;
25946;SDS011;13745;51.470;9.894;2024-02-21T10:25:16;9.20;;;3.67;;
25946;SDS011;13745;51.470;9.894;2024-02-21T10:28:03;9.55;;;3.30;;
25946;SDS011;13745;51.470;9.894;2024-02-21T10:30:49;11.45;;;3.63;;
25946;SDS011;13745;51.470;9.894;2024-02-21T10:33:35;7.07;;;3.13;;
25946;SDS011;13745;51.470;9.894;2024-02-21T10:36:21;9.65;;;3.83;;
25946;SDS011;13745;51.470;9.894;2024-02-21T10:39:06;12.70;;;3.20;;
25946;SDS011;13745;51.470;9.894;2024-02-21T10:41:54;9.02;;;3.65;;
25946;SDS011;13745;51.470;9.894;2024-02-21T10:44:42;7.53;;;2.55;;
25946;SDS011;13745;51.470;9.894;2024-02-21T10:47:30;8.55;;;3.55;;
25946;SDS011;13745;51.470;9.894;2024-02-21T10:50:17;4.95;;;2.47;;
25946;SDS011;13745;51.470;9.894;2024-02-21T10:53:05;5.93;;;2.95;;
25946;SDS011;13745;51.470;9.894;2024-02-21T10:55:58;6.22;;;2.92;;
25946;SDS011;13745;51.470;9.894;2024-02-21T10:58:56;8.48;;;2.90;;
25946;SDS011;13745;51.470;9.894;2024-02-21T11:01:42;9.02;;;2.80;;
25946;SDS011;13745;51.470;9.894;2024-02-21T11:04:27;8.10;;;3.58;;
25946;SDS011;13745;51.470;9.894;2024-02-21T11:07:14;7.63;;;3.55;;
25946;SDS011;13745;51.470;9.894;2024-02-21T11:10:00;11.18;;;2.95;;
25946;SDS011;13745;51.470;9.894;2024-02-21T11:12:46;9.45;;;2.58;;
25946;SDS011;13745;51.470;9.894;2024-02-21T11:15:32;8.05;;;3.10;;
25946;SDS011;13745;51.470;9.894;2024-02-21T11:18:22;7.65;;;3.53;;
25946;SDS011;13745;51.470;9.894;2024-02-21T11:21:08;7.65;;;3.17;;
25946;SDS011;13745;51.470;9.894;2024-02-21T11:23:54;6.90;;;3.08;;
25946;SDS011;13745;51.470;9.894;2024-02-21T11:26:40;6.63;;;2.90;;
25946;SDS011;13745;51.470;9.894;2024-02-21T11:29:27;6.03;;;2.10;;
25946;SDS011;13745;51.470;9.894;2024-02-21T11:32:15;8.75;;;3.05;;
25946;SDS011;13745;51.470;9.894;2024-02-21T11:35:02;6.22;;;2.47;;
25946;SDS011;13745;51.470;9.894;2024-02-21T11:37:48;4.32;;;2.00;;
25946;SDS011;13745;51.470;9.894;2024-02-21T11:40:33;6.05;;;2.30;;
25946;SDS011;13745;51.470;9.894;2024-02-21T11:43:19;5.00;;;2.10;;
25946;SDS011;13745;51.470;9.894;2024-02-21T11:46:05;6.15;;;2.40;;
25946;SDS011;13745;51.470;9.894;2024-02-21T11:48:51;5.72;;;2.30;;
25946;SDS011;13745;51.470;9.894;2024-02-21T11:51:37;5.10;;;1.88;;
25946;SDS011;13745;51.470;9.894;2024-02-21T11:54:21;6.53;;;2.50;;
25946;SDS011;13745;51.470;9.894;2024-02-21T11:57:07;7.85;;;2.47;;
25946;SDS011;13745;51.470;9.894;2024-02-21T11:59:52;11.48;;;3.80;;
25946;SDS011;13745;51.470;9.894;2024-02-21T12:02:39;8.68;;;3.05;;
25946;SDS011;13745;51.470;9.894;2024-02-21T12:05:25;7.53;;;3.33;;
25946;SDS011;13745;51.470;9.894;2024-02-21T12:08:12;10.48;;;3.00;;
25946;SDS011;13745;51.470;9.894;2024-02-21T12:10:57;8.63;;;3.53;;
25946;SDS011;13745;51.470;9.894;2024-02-21T12:13:42;15.52;;;3.58;;
25946;SDS011;13745;51.470;9.894;2024-02-21T12:16:28;10.98;;;2.90;;
25946;SDS011;13745;51.470;9.894;2024-02-21T12:19:14;7.40;;;2.45;;
25946;SDS011;13745;51.470;9.894;2024-02-21T12:22:02;7.93;;;3.20;;
25946;SDS011;13745;51.470;9.894;2024-02-21T12:24:49;9.57;;;3.25;;
25946;SDS011;13745;51.470;9.894;2024-02-21T12:27:34;8.98;;;3.03;;
25946;SDS011;13745;51.470;9.894;2024-02-21T12:30:19;11.55;;;3.92;;
25946;SDS011;13745;51.470;9.894;2024-02-21T12:33:04;9.90;;;3.78;;
25946;SDS011;13745;51.470;9.894;2024-02-21T12:35:50;11.88;;;3.65;;
25946;SDS011;13745;51.470;9.894;2024-02-21T12:38:36;9.25;;;3.47;;
25946;SDS011;13745;51.470;9.894;2024-02-21T12:41:21;6.97;;;3.13;;
25946;SDS011;13745;51.470;9.894;2024-02-21T12:44:09;10.35;;;3.45;;
25946;SDS011;13745;51.470;9.894;2024-02-21T12:46:54;17.58;;;4.10;;
25946;SDS011;13745;51.470;9.894;2024-02-21T12:49:39;7.85;;;3.30;;
25946;SDS011;13745;51.470;9.894;2024-02-21T12:52:25;10.15;;;3.50;;
25946;SDS011;13745;51.470;9.894;2024-02-21T12:55:12;14.98;;;7.60;;
25946;SDS011;13745;51.470;9.894;2024-02-21T12:58:02;11.20;;;5.43;;
25946;SDS011;13745;51.470;9.894;2024-02-21T13:00:48;11.68;;;7.10;;
25946;SDS011;13745;51.470;9.894;2024-02-21T13:03:33;11.85;;;4.72;;
25946;SDS011;13745;51.470;9.894;2024-02-21T13:06:18;9.15;;;3.55;;
25946;SDS011;13745;51.470;9.894;2024-02-21T13:09:03;10.40;;;3.22;;
25946;SDS011;13745;51.470;9.894;2024-02-21T13:11:53;9.38;;;3.25;;
25946;SDS011;13745;51.470;9.894;2024-02-21T13:14:38;8.20;;;3.00;;
25946;SDS011;13745;51.470;9.894;2024-02-21T13:17:23;8.95;;;3.45;;
25946;SDS011;13745;51.470;9.894;2024-02-21T13:20:13;11.10;;;3.25;;
25946;SDS011;13745;51.470;9.894;2024-02-21T13:22:59;9.65;;;2.78;;
25946;SDS011;13745;51.470;9.894;2024-02-21T13:25:44;9.82;;;2.85;;
25946;SDS011;13745;51.470;9.894;2024-02-21T13:28:30;8.95;;;2.47;;
25946;SDS011;13745;51.470;9.894;2024-02-21T13:31:15;9.07;;;3.70;;
25946;SDS011;13745;51.470;9.894;2024-02-21T13:34:01;11.70;;;3.00;;
25946;SDS011;13745;51.470;9.894;2024-02-21T13:36:47;6.90;;;2.35;;
25946;SDS011;13745;51.470;9.894;2024-02-21T13:39:31;6.68;;;2.30;;
25946;SDS011;13745;51.470;9.894;2024-02-21T13:42:18;5.93;;;3.03;;
25946;SDS011;13745;51.470;9.894;2024-02-21T13:45:05;11.23;;;3.20;;
25946;SDS011;13745;51.470;9.894;2024-02-21T13:47:52;9.57;;;3.00;;
25946;SDS011;13745;51.470;9.894;2024-02-21T13:50:37;8.52;;;3.08;;
25946;SDS011;13745;51.470;9.894;2024-02-21T13:53:26;10.65;;;3.50;;
25946;SDS011;13745;51.470;9.894;2024-02-21T13:56:11;9.23;;;2.78;;
25946;SDS011;13745;51.470;9.894;2024-02-21T13:58:57;7.03;;;2.80;;
25946;SDS011;13745;51.470;9.894;2024-02-21T14:01:45;7.22;;;2.78;;
25946;SDS011;13745;51.470;9.894;2024-02-21T14:04:30;7.22;;;2.72;;
25946;SDS011;13745;51.470;9.894;2024-02-21T14:07:15;6.60;;;2.95;;
25946;SDS011;13745;51.470;9.894;2024-02-21T14:10:00;9.48;;;2.97;;
25946;SDS011;13745;51.470;9.894;2024-02-21T14:12:47;12.07;;;3.53;;
25946;SDS011;13745;51.470;9.894;2024-02-21T14:15:33;6.50;;;2.95;;
25946;SDS011;13745;51.470;9.894;2024-02-21T14:18:19;7.78;;;2.95;;
25946;SDS011;13745;51.470;9.894;2024-02-21T14:21:04;8.93;;;3.55;;
25946;SDS011;13745;51.470;9.894;2024-02-21T14:23:49;8.25;;;4.07;;
25946;SDS011;13745;51.470;9.894;2024-02-21T14:26:35;11.38;;;2.92;;
25946;SDS011;13745;51.470;9.894;2024-02-21T14:29:21;4.72;;;2.67;;
25946;SDS011;13745;51.470;9.894;2024-02-21T14:32:07;6.47;;;2.92;;
25946;SDS011;13745;51.470;9.894;2024-02-21T14:34:55;5.65;;;3.03;;
25946;SDS011;13745;51.470;9.894;2024-02-21T14:37:40;8.50;;;3.67;;
25946;SDS011;13745;51.470;9.894;2024-02-21T14:40:25;6.90;;;3.40;;
25946;SDS011;13745;51.470;9.894;2024-02-21T14:43:10;8.18;;;3.17;;
25946;SDS011;13745;51.470;9.894;2024-02-21T14:45:55;10.80;;;3.88;;
25946;SDS011;13745;51.470;9.894;2024-02-21T14:48:40;8.70;;;3.33;;
25946;SDS011;13745;51.470;9.894;2024-02-21T14:51:26;5.45;;;2.80;;
25946;SDS011;13745;51.470;9.894;2024-02-21T14:54:11;6.47;;;2.83;;
25946;SDS011;13745;51.470;9.894;2024-02-21T14:56:57;7.10;;;2.78;;
25946;SDS011;13745;51.470;9.894;2024-02-21T14:59:42;6.15;;;2.45;;
25946;SDS011;13745;51.470;9.894;2024-02-21T15:02:27;7.20;;;3.47;;
25946;SDS011;13745;51.470;9.894;2024-02-21T15:05:12;8.02;;;3.83;;
25946;SDS011;13745;51.470;9.894;2024-02-21T15:07:59;6.38;;;3.38;;
25946;SDS011;13745;51.470;9.894;2024-02-21T15:10:44;7.47;;;3.75;;
25946;SDS011;13745;51.470;9.894;2024-02-21T15:13:29;11.65;;;4.00;;
25946;SDS011;13745;51.470;9.894;2024-02-21T15:16:15;10.07;;;4.10;;
25946;SDS011;13745;51.470;9.894;2024-02-21T15:19:00;8.77;;;3.33;;
25946;SDS011;13745;51.470;9.894;2024-02-21T15:21:46;9.38;;;3.33;;
25946;SDS011;13745;51.470;9.894;2024-02-21T15:24:33;9.82;;;3.83;;
25946;SDS011;13745;51.470;9.894;2024-02-21T15:27:18;13.07;;;4.30;;
25946;SDS011;13745;51.470;9.894;2024-02-21T15:30:04;12.52;;;4.47;;
25946;SDS011;13745;51.470;9.894;2024-02-21T15:32:50;5.93;;;3.55;;
25946;SDS011;13745;51.470;9.894;2024-02-21T15:35:35;8.95;;;3.55;;
25946;SDS011;13745;51.470;9.894;2024-02-21T15:38:20;7.45;;;3.80;;
25946;SDS011;13745;51.470;9.894;2024-02-21T15:41:07;7.90;;;3.60;;
25946;SDS011;13745;51.470;9.894;2024-02-21T15:43:52;10.23;;;4.03;;
25946;SDS011;13745;51.470;9.894;2024-02-21T15:46:37;7.53;;;3.65;;
25946;SDS011;13745;51.470;9.894;2024-02-21T15:49:22;8.10;;;3.55;;
25946;SDS011;13745;51.470;9.894;2024-02-21T15:52:09;9.88;;;4.28;;
25946;SDS011;13745;51.470;9.894;2024-02-21T15:54:54;10.50;;;4.13;;
25946;SDS011;13745;51.470;9.894;2024-02-21T15:57:41;8.65;;;3.65;;
25946;SDS011;13745;51.470;9.894;2024-02-21T16:00:26;8.25;;;3.22;;
25946;SDS011;13745;51.470;9.894;2024-02-21T16:03:11;9.20;;;3.72;;
25946;SDS011;13745;51.470;9.894;2024-02-21T16:05:57;7.85;;;3.10;;
25946;SDS011;13745;51.470;9.894;2024-02-21T16:08:42;9.95;;;3.33;;
25946;SDS011;13745;51.470;9.894;2024-02-21T16:11:28;9.07;;;3.30;;
25946;SDS011;13745;51.470;9.894;2024-02-21T16:14:14;5.97;;;2.95;;
25946;SDS011;13745;51.470;9.894;2024-02-21T16:17:00;8.82;;;3.58;;
25946;SDS011;13745;51.470;9.894;2024-02-21T16:19:45;9.23;;;3.42;;
25946;SDS011;13745;51.470;9.894;2024-02-21T16:22:30;9.38;;;2.95;;
25946;SDS011;13745;51.470;9.894;2024-02-21T16:25:15;8.00;;;2.90;;
25946;SDS011;13745;51.470;9.894;2024-02-21T16:28:01;14.52;;;3.60;;